sensor_id;sensor_type;location;lat;lon;timestamp;pressure;altitude;pressure_sealevel;temperature;humidity
40596;BME280;26304;48.794;9.820;2023-03-14T00:02:17;94806.63;;;18.56;51.75
40596;BME280;26304;48.794;9.820;2023-03-14T00:07:59;94811.91;;;18.56;51.83
40596;BME280;26304;48.794;9.820;2023-03-14T00:13:42;94823.25;;;18.52;51.97
40596;BME280;26304;48.794;9.820;2023-03-14T00:19:26;94797.75;;;18.49;51.90
40596;BME280;26304;48.794;9.820;2023-03-14T00:25:09;94792.47;;;18.49;51.83
40596;BME280;26304;48.794;9.820;2023-03-14T00:30:52;94749.69;;;18.45;52.31
40596;BME280;26304;48.794;9.820;2023-03-14T00:36:36;94718.94;;;18.42;52.19
40596;BME280;26304;48.794;9.820;2023-03-14T00:42:19;94694.13;;;18.43;52.02
40596;BME280;26304;48.794;9.820;2023-03-14T00:48:01;94680.66;;;18.41;51.96
40596;BME280;26304;48.794;9.820;2023-03-14T00:53:45;94691.16;;;18.41;52.15
40596;BME280;26304;48.794;9.820;2023-03-14T00:59:27;94701.69;;;18.41;51.98
40596;BME280;26304;48.794;9.820;2023-03-14T01:05:10;94708.50;;;18.39;51.93
40596;BME280;26304;48.794;9.820;2023-03-14T01:10:54;94713.03;;;18.38;52.15
40596;BME280;26304;48.794;9.820;2023-03-14T01:16:36;94710.03;;;18.36;52.17
40596;BME280;26304;48.794;9.820;2023-03-14T01:22:18;94708.59;;;18.35;52.13
40596;BME280;26304;48.794;9.820;2023-03-14T01:28:03;94712.34;;;18.34;52.00
40596;BME280;26304;48.794;9.820;2023-03-14T01:33:46;94692.03;;;18.34;52.21
40596;BME280;26304;48.794;9.820;2023-03-14T01:39:29;94686.88;;;18.31;52.22
40596;BME280;26304;48.794;9.820;2023-03-14T01:51:33;94658.34;;;18.29;51.96
40596;BME280;26304;48.794;9.820;2023-03-14T01:57:20;94640.34;;;18.28;52.36
40596;BME280;26304;48.794;9.820;2023-03-14T02:03:07;94633.59;;;18.27;51.73
40596;BME280;26304;48.794;9.820;2023-03-14T02:08:54;94629.50;;;18.26;51.94
40596;BME280;26304;48.794;9.820;2023-03-14T02:14:37;94611.06;;;18.26;52.22
40596;BME280;26304;48.794;9.820;2023-03-14T02:20:30;94609.19;;;18.26;51.73
40596;BME280;26304;48.794;9.820;2023-03-14T02:26:20;94601.88;;;18.34;51.63
40596;BME280;26304;48.794;9.820;2023-03-14T02:32:06;94597.97;;;19.17;50.12
40596;BME280;26304;48.794;9.820;2023-03-14T02:37:51;94615.31;;;20.38;47.25
40596;BME280;26304;48.794;9.820;2023-03-14T02:43:36;94594.22;;;20.85;46.59
40596;BME280;26304;48.794;9.820;2023-03-14T02:49:20;94589.75;;;21.17;46.13
40596;BME280;26304;48.794;9.820;2023-03-14T02:55:03;94570.09;;;21.72;45.20
40596;BME280;26304;48.794;9.820;2023-03-14T03:00:46;94595.41;;;22.23;44.57
40596;BME280;26304;48.794;9.820;2023-03-14T03:06:30;94581.09;;;22.52;44.01
40596;BME280;26304;48.794;9.820;2023-03-14T03:12:13;94571.66;;;22.51;44.44
40596;BME280;26304;48.794;9.820;2023-03-14T03:17:55;94565.19;;;22.70;44.19
40596;BME280;26304;48.794;9.820;2023-03-14T03:23:40;94574.31;;;23.06;43.64
40596;BME280;26304;48.794;9.820;2023-03-14T03:29:22;94565.72;;;23.48;43.31
40596;BME280;26304;48.794;9.820;2023-03-14T03:35:05;94540.69;;;23.40;43.28
40596;BME280;26304;48.794;9.820;2023-03-14T03:40:49;94539.97;;;23.39;43.52
40596;BME280;26304;48.794;9.820;2023-03-14T03:46:32;94530.09;;;23.40;43.45
40596;BME280;26304;48.794;9.820;2023-03-14T03:52:14;94530.34;;;23.51;43.41
40596;BME280;26304;48.794;9.820;2023-03-14T03:57:58;94517.34;;;23.63;43.55
40596;BME280;26304;48.794;9.820;2023-03-14T04:03:40;94508.25;;;23.54;43.83
40596;BME280;26304;48.794;9.820;2023-03-14T04:09:23;94511.44;;;23.68;43.60
40596;BME280;26304;48.794;9.820;2023-03-14T04:15:08;94507.63;;;23.60;43.65
40596;BME280;26304;48.794;9.820;2023-03-14T04:20:51;94507.69;;;23.50;43.81
40596;BME280;26304;48.794;9.820;2023-03-14T04:26:34;94521.44;;;23.21;44.44
40596;BME280;26304;48.794;9.820;2023-03-14T04:32:18;94514.53;;;22.96;44.77
40596;BME280;26304;48.794;9.820;2023-03-14T04:38:00;94518.09;;;22.56;45.68
40596;BME280;26304;48.794;9.820;2023-03-14T04:43:43;94504.88;;;22.37;45.68
40596;BME280;26304;48.794;9.820;2023-03-14T04:49:27;94507.34;;;22.31;45.95
40596;BME280;26304;48.794;9.820;2023-03-14T04:55:09;94500.09;;;22.04;46.48
40596;BME280;26304;48.794;9.820;2023-03-14T05:00:52;94486.84;;;21.95;46.92
40596;BME280;26304;48.794;9.820;2023-03-14T05:06:36;94470.97;;;21.95;46.73
40596;BME280;26304;48.794;9.820;2023-03-14T05:12:18;94457.16;;;21.91;46.88
40596;BME280;26304;48.794;9.820;2023-03-14T05:18:01;94446.81;;;21.74;47.35
40596;BME280;26304;48.794;9.820;2023-03-14T05:23:44;94444.63;;;21.64;47.62
40596;BME280;26304;48.794;9.820;2023-03-14T05:29:27;94443.25;;;21.50;47.66
40596;BME280;26304;48.794;9.820;2023-03-14T05:35:09;94433.66;;;21.43;47.76
40596;BME280;26304;48.794;9.820;2023-03-14T05:40:53;94436.41;;;21.30;48.47
40596;BME280;26304;48.794;9.820;2023-03-14T05:46:35;94404.19;;;21.13;48.98
40596;BME280;26304;48.794;9.820;2023-03-14T05:52:18;94413.59;;;21.14;48.76
40596;BME280;26304;48.794;9.820;2023-03-14T05:58:01;94415.09;;;20.93;48.93
40596;BME280;26304;48.794;9.820;2023-03-14T06:03:44;94409.22;;;20.89;48.83
40596;BME280;26304;48.794;9.820;2023-03-14T06:09:26;94404.94;;;20.82;48.96
40596;BME280;26304;48.794;9.820;2023-03-14T06:15:10;94386.13;;;20.80;49.01
40596;BME280;26304;48.794;9.820;2023-03-14T06:20:53;94395.91;;;20.71;49.28
40596;BME280;26304;48.794;9.820;2023-03-14T06:26:36;94388.59;;;20.53;49.09
40596;BME280;26304;48.794;9.820;2023-03-14T06:32:20;94402.97;;;20.74;48.96
40596;BME280;26304;48.794;9.820;2023-03-14T06:38:02;94403.38;;;20.72;48.36
40596;BME280;26304;48.794;9.820;2023-03-14T06:43:45;94407.03;;;20.65;48.55
40596;BME280;26304;48.794;9.820;2023-03-14T06:49:29;94408.22;;;20.51;49.96
40596;BME280;26304;48.794;9.820;2023-03-14T06:55:11;94416.09;;;20.42;49.78
40596;BME280;26304;48.794;9.820;2023-03-14T07:00:53;94417.69;;;20.40;50.07
40596;BME280;26304;48.794;9.820;2023-03-14T07:06:39;94409.47;;;20.38;50.05
40596;BME280;26304;48.794;9.820;2023-03-14T07:12:25;94410.56;;;20.27;50.21
40596;BME280;26304;48.794;9.820;2023-03-14T07:18:07;94424.31;;;20.22;50.57
40596;BME280;26304;48.794;9.820;2023-03-14T07:23:51;94419.41;;;20.33;50.02
40596;BME280;26304;48.794;9.820;2023-03-14T07:29:33;94441.91;;;20.25;50.22
40596;BME280;26304;48.794;9.820;2023-03-14T07:35:16;94434.22;;;20.18;50.80
40596;BME280;26304;48.794;9.820;2023-03-14T07:41:00;94420.81;;;20.25;50.67
40596;BME280;26304;48.794;9.820;2023-03-14T07:46:43;94422.03;;;20.33;50.43
40596;BME280;26304;48.794;9.820;2023-03-14T07:52:25;94435.53;;;20.36;50.72
40596;BME280;26304;48.794;9.820;2023-03-14T07:58:09;94439.59;;;20.27;50.79
40596;BME280;26304;48.794;9.820;2023-03-14T08:03:51;94447.50;;;20.27;51.32
40596;BME280;26304;48.794;9.820;2023-03-14T08:09:34;94453.28;;;20.35;50.92
40596;BME280;26304;48.794;9.820;2023-03-14T08:15:18;94454.38;;;20.47;50.87
40596;BME280;26304;48.794;9.820;2023-03-14T08:21:00;94458.75;;;20.41;50.86
40596;BME280;26304;48.794;9.820;2023-03-14T08:26:43;94444.44;;;20.51;51.02
40596;BME280;26304;48.794;9.820;2023-03-14T08:32:26;94450.09;;;20.40;51.24
40596;BME280;26304;48.794;9.820;2023-03-14T08:38:09;94447.03;;;20.42;51.50
40596;BME280;26304;48.794;9.820;2023-03-14T08:43:52;94458.22;;;20.46;51.56
40596;BME280;26304;48.794;9.820;2023-03-14T08:49:35;94449.34;;;20.40;51.60
40596;BME280;26304;48.794;9.820;2023-03-14T08:55:18;94451.28;;;20.39;51.53
40596;BME280;26304;48.794;9.820;2023-03-14T09:01:00;94457.56;;;20.42;51.39
40596;BME280;26304;48.794;9.820;2023-03-14T09:06:44;94451.44;;;20.45;51.43
40596;BME280;26304;48.794;9.820;2023-03-14T09:12:26;94455.13;;;20.47;51.00
40596;BME280;26304;48.794;9.820;2023-03-14T09:18:09;94445.13;;;20.42;51.04
40596;BME280;26304;48.794;9.820;2023-03-14T09:23:52;94453.53;;;20.50;51.09
40596;BME280;26304;48.794;9.820;2023-03-14T09:29:35;94441.38;;;20.53;51.19
40596;BME280;26304;48.794;9.820;2023-03-14T09:35:17;94461.78;;;20.52;51.23
40596;BME280;26304;48.794;9.820;2023-03-14T09:41:03;94465.56;;;20.51;51.38
40596;BME280;26304;48.794;9.820;2023-03-14T09:46:55;94465.56;;;20.51;51.21
40596;BME280;26304;48.794;9.820;2023-03-14T09:52:39;94465.28;;;20.49;51.26
40596;BME280;26304;48.794;9.820;2023-03-14T09:58:26;94456.53;;;20.61;51.04
40596;BME280;26304;48.794;9.820;2023-03-14T10:04:13;94474.78;;;20.46;50.80
40596;BME280;26304;48.794;9.820;2023-03-14T10:09:57;94467.28;;;20.45;50.91
40596;BME280;26304;48.794;9.820;2023-03-14T10:15:47;94470.72;;;20.55;50.25
40596;BME280;26304;48.794;9.820;2023-03-14T10:21:36;94476.78;;;20.20;48.78
40596;BME280;26304;48.794;9.820;2023-03-14T10:27:20;94466.34;;;20.04;47.95
40596;BME280;26304;48.794;9.820;2023-03-14T10:33:19;94487.03;;;19.92;47.78
40596;BME280;26304;48.794;9.820;2023-03-14T10:39:22;94472.91;;;19.86;47.12
40596;BME280;26304;48.794;9.820;2023-03-14T10:45:27;94474.09;;;19.85;47.25
40596;BME280;26304;48.794;9.820;2023-03-14T10:51:18;94477.22;;;19.29;45.72
40596;BME280;26304;48.794;9.820;2023-03-14T10:57:04;94470.41;;;19.44;46.45
40596;BME280;26304;48.794;9.820;2023-03-14T11:03:02;94464.19;;;19.51;46.04
40596;BME280;26304;48.794;9.820;2023-03-14T11:08:52;94475.56;;;19.60;45.09
40596;BME280;26304;48.794;9.820;2023-03-14T11:14:44;94474.88;;;18.92;45.71
40596;BME280;26304;48.794;9.820;2023-03-14T11:20:34;94468.88;;;18.92;43.86
40596;BME280;26304;48.794;9.820;2023-03-14T11:26:27;94462.50;;;18.18;45.21
40596;BME280;26304;48.794;9.820;2023-03-14T11:32:19;94459.38;;;18.06;44.68
40596;BME280;26304;48.794;9.820;2023-03-14T11:38:18;94481.25;;;17.50;46.82
40596;BME280;26304;48.794;9.820;2023-03-14T11:44:10;94495.94;;;17.84;47.21
40596;BME280;26304;48.794;9.820;2023-03-14T11:49:58;94491.03;;;17.66;47.89
40596;BME280;26304;48.794;9.820;2023-03-14T11:55:44;94506.22;;;17.95;48.63
40596;BME280;26304;48.794;9.820;2023-03-14T12:01:36;94518.19;;;18.29;47.97
40596;BME280;26304;48.794;9.820;2023-03-14T12:07:26;94523.28;;;18.20;48.45
40596;BME280;26304;48.794;9.820;2023-03-14T12:13:13;94530.53;;;17.26;50.26
40596;BME280;26304;48.794;9.820;2023-03-14T12:19:14;94521.84;;;17.82;49.50
40596;BME280;26304;48.794;9.820;2023-03-14T12:25:03;94529.81;;;17.78;49.43
40596;BME280;26304;48.794;9.820;2023-03-14T12:30:47;94534.34;;;17.25;50.31
40596;BME280;26304;48.794;9.820;2023-03-14T12:36:54;94546.66;;;17.65;49.68
40596;BME280;26304;48.794;9.820;2023-03-14T12:42:45;94554.69;;;17.57;50.20
40596;BME280;26304;48.794;9.820;2023-03-14T12:48:33;94553.59;;;17.55;50.55
40596;BME280;26304;48.794;9.820;2023-03-14T12:54:35;94564.16;;;17.15;50.27
40596;BME280;26304;48.794;9.820;2023-03-14T13:00:29;94561.41;;;17.22;50.30
40596;BME280;26304;48.794;9.820;2023-03-14T13:06:12;94571.75;;;17.49;49.80
40596;BME280;26304;48.794;9.820;2023-03-14T13:12:01;94598.53;;;17.00;50.66
40596;BME280;26304;48.794;9.820;2023-03-14T13:17:46;94622.81;;;17.28;50.34
40596;BME280;26304;48.794;9.820;2023-03-14T13:23:31;94666.72;;;17.04;50.88
40596;BME280;26304;48.794;9.820;2023-03-14T13:29:18;94720.78;;;17.01;49.20
40596;BME280;26304;48.794;9.820;2023-03-14T13:35:01;94727.28;;;17.17;48.33
40596;BME280;26304;48.794;9.820;2023-03-14T13:40:45;94760.25;;;16.94;47.63
40596;BME280;26304;48.794;9.820;2023-03-14T13:46:29;94767.63;;;16.76;46.14
40596;BME280;26304;48.794;9.820;2023-03-14T13:52:23;94783.19;;;16.90;44.58
40596;BME280;26304;48.794;9.820;2023-03-14T13:58:13;94811.19;;;16.69;43.82
40596;BME280;26304;48.794;9.820;2023-03-14T14:03:59;94826.28;;;16.62;43.52
40596;BME280;26304;48.794;9.820;2023-03-14T14:09:46;94848.78;;;16.59;42.88
40596;BME280;26304;48.794;9.820;2023-03-14T14:15:40;94864.78;;;16.38;41.87
40596;BME280;26304;48.794;9.820;2023-03-14T14:21:25;94873.09;;;16.63;41.40
40596;BME280;26304;48.794;9.820;2023-03-14T14:27:12;94892.47;;;16.42;41.04
40596;BME280;26304;48.794;9.820;2023-03-14T14:33:11;94920.44;;;16.56;41.18
40596;BME280;26304;48.794;9.820;2023-03-14T14:38:58;94932.03;;;16.17;40.91
40596;BME280;26304;48.794;9.820;2023-03-14T14:44:42;94967.09;;;16.72;40.30
40596;BME280;26304;48.794;9.820;2023-03-14T14:50:30;94992.34;;;16.17;39.97
40596;BME280;26304;48.794;9.820;2023-03-14T14:56:18;94977.69;;;16.23;38.88
40596;BME280;26304;48.794;9.820;2023-03-14T15:02:04;95000.13;;;16.28;39.04
40596;BME280;26304;48.794;9.820;2023-03-14T15:07:46;95006.53;;;16.23;38.82
40596;BME280;26304;48.794;9.820;2023-03-14T15:13:31;95014.56;;;15.98;38.04
40596;BME280;26304;48.794;9.820;2023-03-14T15:19:19;95021.63;;;16.08;37.94
40596;BME280;26304;48.794;9.820;2023-03-14T15:25:02;95057.72;;;15.83;37.90
40596;BME280;26304;48.794;9.820;2023-03-14T15:30:46;95052.94;;;16.26;38.55
40596;BME280;26304;48.794;9.820;2023-03-14T15:36:30;95062.50;;;16.96;38.53
40596;BME280;26304;48.794;9.820;2023-03-14T15:42:13;95068.91;;;17.26;38.97
40596;BME280;26304;48.794;9.820;2023-03-14T15:47:57;95067.34;;;17.32;39.65
40596;BME280;26304;48.794;9.820;2023-03-14T15:53:40;95087.66;;;17.28;40.32
40596;BME280;26304;48.794;9.820;2023-03-14T15:59:24;95100.00;;;17.31;39.91
40596;BME280;26304;48.794;9.820;2023-03-14T16:05:09;95081.22;;;17.33;40.31
40596;BME280;26304;48.794;9.820;2023-03-14T16:10:52;95087.56;;;17.35;40.33
40596;BME280;26304;48.794;9.820;2023-03-14T16:16:34;95090.16;;;17.39;40.23
40596;BME280;26304;48.794;9.820;2023-03-14T16:22:19;95115.34;;;17.36;41.24
40596;BME280;26304;48.794;9.820;2023-03-14T16:28:01;95122.00;;;17.45;41.60
40596;BME280;26304;48.794;9.820;2023-03-14T16:33:44;95135.78;;;17.52;41.82
40596;BME280;26304;48.794;9.820;2023-03-14T16:39:27;95131.94;;;17.60;42.65
40596;BME280;26304;48.794;9.820;2023-03-14T16:45:12;95162.75;;;17.60;43.02
40596;BME280;26304;48.794;9.820;2023-03-14T16:50:55;95170.19;;;17.65;43.18
40596;BME280;26304;48.794;9.820;2023-03-14T16:56:39;95167.84;;;17.74;43.35
40596;BME280;26304;48.794;9.820;2023-03-14T17:02:21;95181.66;;;17.78;43.66
40596;BME280;26304;48.794;9.820;2023-03-14T17:08:04;95188.31;;;17.87;43.78
40596;BME280;26304;48.794;9.820;2023-03-14T17:13:47;95191.31;;;17.92;43.98
40596;BME280;26304;48.794;9.820;2023-03-14T17:19:30;95190.91;;;17.94;43.91
40596;BME280;26304;48.794;9.820;2023-03-14T17:25:14;95203.19;;;18.04;45.21
40596;BME280;26304;48.794;9.820;2023-03-14T17:31:05;95218.44;;;18.17;43.71
40596;BME280;26304;48.794;9.820;2023-03-14T17:36:48;95224.59;;;18.03;44.12
40596;BME280;26304;48.794;9.820;2023-03-14T17:42:30;95245.78;;;17.92;44.18
40596;BME280;26304;48.794;9.820;2023-03-14T17:48:14;95273.50;;;18.00;44.49
40596;BME280;26304;48.794;9.820;2023-03-14T17:53:57;95285.22;;;17.92;44.42
40596;BME280;26304;48.794;9.820;2023-03-14T17:59:39;95298.38;;;17.92;44.38
40596;BME280;26304;48.794;9.820;2023-03-14T18:05:24;95313.41;;;17.88;44.30
40596;BME280;26304;48.794;9.820;2023-03-14T18:11:06;95329.16;;;17.91;43.92
40596;BME280;26304;48.794;9.820;2023-03-14T18:16:49;95314.78;;;18.03;43.77
40596;BME280;26304;48.794;9.820;2023-03-14T18:22:35;95329.00;;;18.09;44.75
40596;BME280;26304;48.794;9.820;2023-03-14T18:28:18;95357.16;;;18.09;44.42
40596;BME280;26304;48.794;9.820;2023-03-14T18:34:01;95352.22;;;18.14;45.10
40596;BME280;26304;48.794;9.820;2023-03-14T18:39:44;95374.25;;;17.90;43.77
40596;BME280;26304;48.794;9.820;2023-03-14T18:45:27;95382.25;;;17.72;43.41
40596;BME280;26304;48.794;9.820;2023-03-14T18:51:11;95394.66;;;17.68;44.16
40596;BME280;26304;48.794;9.820;2023-03-14T18:56:56;95396.69;;;18.02;44.06
40596;BME280;26304;48.794;9.820;2023-03-14T19:02:40;95406.16;;;17.92;45.63
40596;BME280;26304;48.794;9.820;2023-03-14T19:08:23;95416.31;;;17.90;45.70
40596;BME280;26304;48.794;9.820;2023-03-14T19:14:07;95403.44;;;18.03;46.38
40596;BME280;26304;48.794;9.820;2023-03-14T19:19:50;95398.56;;;18.01;46.85
40596;BME280;26304;48.794;9.820;2023-03-14T19:25:34;95425.94;;;18.07;46.85
40596;BME280;26304;48.794;9.820;2023-03-14T19:31:18;95437.91;;;18.12;47.27
40596;BME280;26304;48.794;9.820;2023-03-14T19:37:01;95450.50;;;18.35;46.38
40596;BME280;26304;48.794;9.820;2023-03-14T19:42:43;95448.22;;;18.37;46.85
40596;BME280;26304;48.794;9.820;2023-03-14T19:48:27;95457.38;;;18.22;47.50
40596;BME280;26304;48.794;9.820;2023-03-14T19:54:10;95465.41;;;18.45;47.80
40596;BME280;26304;48.794;9.820;2023-03-14T19:59:52;95473.66;;;18.51;47.97
40596;BME280;26304;48.794;9.820;2023-03-14T20:05:38;95483.41;;;18.54;46.87
40596;BME280;26304;48.794;9.820;2023-03-14T20:11:21;95490.09;;;18.62;47.66
40596;BME280;26304;48.794;9.820;2023-03-14T20:17:04;95490.91;;;18.52;47.31
40596;BME280;26304;48.794;9.820;2023-03-14T20:22:49;95490.91;;;18.52;46.98
40596;BME280;26304;48.794;9.820;2023-03-14T20:28:31;95514.91;;;18.61;46.97
40596;BME280;26304;48.794;9.820;2023-03-14T20:34:14;95507.53;;;18.45;46.52
40596;BME280;26304;48.794;9.820;2023-03-14T20:39:58;95520.78;;;17.78;45.38
40596;BME280;26304;48.794;9.820;2023-03-14T20:45:40;95523.13;;;17.62;44.47
40596;BME280;26304;48.794;9.820;2023-03-14T20:51:23;95525.66;;;17.80;43.98
40596;BME280;26304;48.794;9.820;2023-03-14T20:57:07;95538.41;;;17.89;44.76
40596;BME280;26304;48.794;9.820;2023-03-14T21:02:49;95545.53;;;17.92;44.62
40596;BME280;26304;48.794;9.820;2023-03-14T21:08:34;95545.13;;;17.90;45.19
40596;BME280;26304;48.794;9.820;2023-03-14T21:14:18;95547.78;;;17.86;45.47
40596;BME280;26304;48.794;9.820;2023-03-14T21:20:02;95549.28;;;17.84;45.73
40596;BME280;26304;48.794;9.820;2023-03-14T21:25:48;95533.91;;;17.78;45.95
40596;BME280;26304;48.794;9.820;2023-03-14T21:31:32;95529.44;;;17.75;45.80
40596;BME280;26304;48.794;9.820;2023-03-14T21:37:15;95536.22;;;17.73;46.21
40596;BME280;26304;48.794;9.820;2023-03-14T21:42:57;95551.25;;;17.69;45.63
40596;BME280;26304;48.794;9.820;2023-03-14T21:48:41;95551.63;;;17.67;46.05
40596;BME280;26304;48.794;9.820;2023-03-14T21:54:24;95549.41;;;17.62;46.66
40596;BME280;26304;48.794;9.820;2023-03-14T22:00:08;95569.31;;;17.59;46.24
40596;BME280;26304;48.794;9.820;2023-03-14T22:05:53;95581.72;;;17.59;46.51
40596;BME280;26304;48.794;9.820;2023-03-14T22:11:36;95583.97;;;17.57;46.52
40596;BME280;26304;48.794;9.820;2023-03-14T22:17:18;95588.50;;;17.53;46.09
40596;BME280;26304;48.794;9.820;2023-03-14T22:23:02;95602.00;;;17.51;46.34
40596;BME280;26304;48.794;9.820;2023-03-14T22:28:45;95586.25;;;17.48;46.30
40596;BME280;26304;48.794;9.820;2023-03-14T22:34:27;95588.88;;;17.48;46.63
40596;BME280;26304;48.794;9.820;2023-03-14T22:40:13;95595.25;;;17.47;46.67
40596;BME280;26304;48.794;9.820;2023-03-14T22:45:59;95590.75;;;17.43;46.18
40596;BME280;26304;48.794;9.820;2023-03-14T22:51:42;95591.53;;;17.40;46.70
40596;BME280;26304;48.794;9.820;2023-03-14T22:57:25;95595.31;;;17.39;46.30
40596;BME280;26304;48.794;9.820;2023-03-14T23:03:08;95611.44;;;17.38;46.36
40596;BME280;26304;48.794;9.820;2023-03-14T23:08:50;95615.94;;;17.37;46.55
40596;BME280;26304;48.794;9.820;2023-03-14T23:14:34;95621.56;;;17.36;46.57
40596;BME280;26304;48.794;9.820;2023-03-14T23:20:17;95612.97;;;17.32;47.25
40596;BME280;26304;48.794;9.820;2023-03-14T23:26:00;95620.09;;;17.31;46.50
40596;BME280;26304;48.794;9.820;2023-03-14T23:31:44;95627.97;;;17.28;47.02
40596;BME280;26304;48.794;9.820;2023-03-14T23:37:27;95632.09;;;17.29;47.02
40596;BME280;26304;48.794;9.820;2023-03-14T23:43:09;95652.38;;;17.28;46.80
40596;BME280;26304;48.794;9.820;2023-03-14T23:48:53;95677.88;;;17.28;46.92
40596;BME280;26304;48.794;9.820;2023-03-14T23:54:36;95703.78;;;17.25;46.37
